Shinkai Maru — JJ4012 — position and weather

sailwx.info

Track history (hours):
 
Tides and Currents Weather Stations Pressure Air Temp Water Temp Dewpoint Dewpoint Depression Visibility Wind Speed Wind Dir Waves Ship Positions

Shinkai Maru

Last reported at 2015-Mar-02 04:22 UTC. Time now 2015-Mar-02 23:15 UTC.
Position N 34°14' E 134°58'.

Length 76 m; draft 4.2 m.

Type: Cargo ship. MMSI: 431301346.

Date/timePositionNaut miles runAvg speedWind from/ knotsBaromVisibWave heightAir tempDewpointWater temp
2015-Mar-02 04:22N 34°14' E 134°58'1413.1
2015-Mar-02 03:19N 34°27' E 135°01'912.2
2015-Mar-02 02:33N 34°37' E 135°01'11 0.5
2015-Mar-01 02:05N 34°41' E 134°49'610.5
2015-Mar-01 01:33N 34°38' E 134°54'10 9.5
2015-Mar-01 00:32N 34°33' E 135°05'1311.9
2015-Feb-28 23:26N 34°21' E 135°01'1112.2
2015-Feb-28 22:33N 34°10' E 134°60'4 0.1
2015-Feb-27 00:33N 34°14' E 134°58'1312.5
2015-Feb-26 23:33N 34°26' E 135°01'10 9.4
2015-Feb-26 22:28N 34°36' E 134°57'3 0.2
2015-Feb-26 04:16N 34°37' E 134°53'912.1
2015-Feb-26 03:33N 34°36' E 135°04'1611.3
2015-Feb-26 02:10N 34°20' E 135°01'711.2
2015-Feb-26 01:33N 34°14' E 134°59'1411.6
2015-Feb-26 00:23N 34°00' E 135°01'14 0.3
2015-Feb-24 02:10N 34°14' E 134°59'1211.2
2015-Feb-24 01:05N 34°26' E 135°02'611.7
2015-Feb-24 00:33N 34°32' E 135°06'7 6.8
2015-Feb-23 23:28N 34°38' E 135°10'0 0.0
2015-Feb-23 22:28N 34°38' E 135°10'0 0.1
2015-Feb-23 21:28N 34°38' E 135°10'0 0.0
2015-Feb-23 20:28N 34°38' E 135°10'0 0.1
2015-Feb-23 19:28N 34°38' E 135°10'0 0.1
2015-Feb-23 18:28N 34°38' E 135°10'0 0.0
2015-Feb-23 17:28N 34°38' E 135°10'0 0.0
2015-Feb-23 16:28N 34°38' E 135°10'0 0.0
2015-Feb-23 15:28N 34°38' E 135°10'0 0.0
2015-Feb-23 14:28N 34°38' E 135°10'0 0.0
2015-Feb-23 13:28N 34°38' E 135°10'2 2.6
2015-Feb-23 12:33N 34°36' E 135°08'1010.4
2015-Feb-23 11:33N 34°36' E 134°55'7 0.3
2015-Feb-22 12:09N 34°40' E 134°49'812.6
2015-Feb-22 11:32N 34°38' E 134°58'10 9.5
2015-Feb-22 10:31N 34°29' E 135°04'1412.6
2015-Feb-22 09:27N 34°16' E 134°60'1011.5
2015-Feb-22 08:33N 34°06' E 135°01'24510.2
2015-Feb-21 08:30N 35°15' E 139°46'1010.7
2015-Feb-21 07:33N 35°25' E 139°43'7 0.3
2015-Feb-20 12:17N 35°28' E 139°51'811.2
2015-Feb-20 11:33N 35°21' E 139°45'1010.1
2015-Feb-20 10:34N 35°11' E 139°46'1212.1
2015-Feb-20 09:32N 35°02' E 139°36'  
Track history (hours):
 
Tides and Currents Weather Stations Pressure Air Temp Water Temp Dewpoint Dewpoint Depression Visibility Wind Speed Wind Dir Waves Ship Positions

Shinkai Maru

Last reported at 2015-Mar-02 04:22 UTC. Time now 2015-Mar-02 23:15 UTC.
Position N 34°14' E 134°58'.

Length 76 m; draft 4.2 m.

Type: Cargo ship. MMSI: 431301346.

Date/timePositionNaut miles runAvg speedWind from/ knotsBaromVisibWave heightAir tempDewpointWater temp
2015-Mar-02 04:22N 34°14' E 134°58'1413.1
2015-Mar-02 03:19N 34°27' E 135°01'912.2
2015-Mar-02 02:33N 34°37' E 135°01'11 0.5
2015-Mar-01 02:05N 34°41' E 134°49'610.5
2015-Mar-01 01:33N 34°38' E 134°54'10 9.5
2015-Mar-01 00:32N 34°33' E 135°05'1311.9
2015-Feb-28 23:26N 34°21' E 135°01'1112.2
2015-Feb-28 22:33N 34°10' E 134°60'4 0.1
2015-Feb-27 00:33N 34°14' E 134°58'1312.5
2015-Feb-26 23:33N 34°26' E 135°01'10 9.4
2015-Feb-26 22:28N 34°36' E 134°57'3 0.2
2015-Feb-26 04:16N 34°37' E 134°53'912.1
2015-Feb-26 03:33N 34°36' E 135°04'1611.3
2015-Feb-26 02:10N 34°20' E 135°01'711.2
2015-Feb-26 01:33N 34°14' E 134°59'1411.6
2015-Feb-26 00:23N 34°00' E 135°01'14 0.3
2015-Feb-24 02:10N 34°14' E 134°59'1211.2
2015-Feb-24 01:05N 34°26' E 135°02'611.7
2015-Feb-24 00:33N 34°32' E 135°06'7 6.8
2015-Feb-23 23:28N 34°38' E 135°10'0 0.0
2015-Feb-23 22:28N 34°38' E 135°10'0 0.1
2015-Feb-23 21:28N 34°38' E 135°10'0 0.0
2015-Feb-23 20:28N 34°38' E 135°10'0 0.1
2015-Feb-23 19:28N 34°38' E 135°10'0 0.1
2015-Feb-23 18:28N 34°38' E 135°10'0 0.0
2015-Feb-23 17:28N 34°38' E 135°10'0 0.0
2015-Feb-23 16:28N 34°38' E 135°10'0 0.0
2015-Feb-23 15:28N 34°38' E 135°10'0 0.0
2015-Feb-23 14:28N 34°38' E 135°10'0 0.0
2015-Feb-23 13:28N 34°38' E 135°10'2 2.6
2015-Feb-23 12:33N 34°36' E 135°08'1010.4
2015-Feb-23 11:33N 34°36' E 134°55'7 0.3
2015-Feb-22 12:09N 34°40' E 134°49'812.6
2015-Feb-22 11:32N 34°38' E 134°58'10 9.5
2015-Feb-22 10:31N 34°29' E 135°04'1412.6
2015-Feb-22 09:27N 34°16' E 134°60'1011.5
2015-Feb-22 08:33N 34°06' E 135°01'24510.2
2015-Feb-21 08:30N 35°15' E 139°46'1010.7
2015-Feb-21 07:33N 35°25' E 139°43'7 0.3
2015-Feb-20 12:17N 35°28' E 139°51'811.2
2015-Feb-20 11:33N 35°21' E 139°45'1010.1
2015-Feb-20 10:34N 35°11' E 139°46'1212.1
2015-Feb-20 09:32N 35°02' E 139°36'  

Dump ship's entire track history